sensor_id;sensor_type;location;lat;lon;timestamp;pressure;altitude;pressure_sealevel;temperature;humidity
50380;BME280;37474;59.468;18.040;2023-03-03T00:01:23;101388.41;;;3.32;56.25
50380;BME280;37474;59.468;18.040;2023-03-03T00:03:52;101380.75;;;3.31;55.82
50380;BME280;37474;59.468;18.040;2023-03-03T00:06:20;101385.03;;;3.30;55.76
50380;BME280;37474;59.468;18.040;2023-03-03T00:08:53;101386.81;;;3.22;55.92
50380;BME280;37474;59.468;18.040;2023-03-03T00:11:21;101376.72;;;3.07;56.79
50380;BME280;37474;59.468;18.040;2023-03-03T00:13:51;101375.88;;;3.06;57.99
50380;BME280;37474;59.468;18.040;2023-03-03T00:16:25;101353.84;;;2.90;56.88
50380;BME280;37474;59.468;18.040;2023-03-03T00:18:55;101374.31;;;2.88;57.67
50380;BME280;37474;59.468;18.040;2023-03-03T00:21:28;101378.47;;;3.03;57.15
50380;BME280;37474;59.468;18.040;2023-03-03T00:24:19;101382.75;;;3.01;57.52
50380;BME280;37474;59.468;18.040;2023-03-03T00:26:52;101373.38;;;2.99;57.08
50380;BME280;37474;59.468;18.040;2023-03-03T00:29:28;101376.06;;;2.86;57.44
50380;BME280;37474;59.468;18.040;2023-03-03T00:32:15;101363.41;;;2.73;58.22
50380;BME280;37474;59.468;18.040;2023-03-03T00:34:44;101372.69;;;2.81;57.39
50380;BME280;37474;59.468;18.040;2023-03-03T00:37:31;101356.56;;;2.72;57.90
50380;BME280;37474;59.468;18.040;2023-03-03T00:40:14;101373.66;;;2.73;58.56
50380;BME280;37474;59.468;18.040;2023-03-03T00:42:49;101369.34;;;2.78;58.47
50380;BME280;37474;59.468;18.040;2023-03-03T00:45:26;101370.28;;;2.68;58.88
50380;BME280;37474;59.468;18.040;2023-03-03T00:48:10;101365.84;;;2.85;58.29
50380;BME280;37474;59.468;18.040;2023-03-03T00:50:43;101371.91;;;2.75;58.73
50380;BME280;37474;59.468;18.040;2023-03-03T00:53:16;101365.94;;;2.74;59.10
50380;BME280;37474;59.468;18.040;2023-03-03T00:55:47;101360.00;;;2.69;59.51
50380;BME280;37474;59.468;18.040;2023-03-03T00:58:21;101355.72;;;2.71;59.30
50380;BME280;37474;59.468;18.040;2023-03-03T01:00:51;101333.63;;;2.59;58.96
50380;BME280;37474;59.468;18.040;2023-03-03T01:03:24;101354.97;;;2.58;59.37
50380;BME280;37474;59.468;18.040;2023-03-03T01:05:53;101355.81;;;2.60;59.64
50380;BME280;37474;59.468;18.040;2023-03-03T01:08:21;101354.16;;;2.56;59.28
50380;BME280;37474;59.468;18.040;2023-03-03T01:10:55;101358.47;;;2.48;59.87
50380;BME280;37474;59.468;18.040;2023-03-03T01:13:26;101335.75;;;2.05;62.04
50380;BME280;37474;59.468;18.040;2023-03-03T01:15:59;101360.44;;;2.17;62.58
50380;BME280;37474;59.468;18.040;2023-03-03T01:18:27;101366.41;;;2.15;62.31
50380;BME280;37474;59.468;18.040;2023-03-03T01:20:56;101360.28;;;2.32;61.19
50380;BME280;37474;59.468;18.040;2023-03-03T01:23:25;101367.19;;;2.21;61.75
50380;BME280;37474;59.468;18.040;2023-03-03T01:25:55;101360.47;;;2.08;63.09
50380;BME280;37474;59.468;18.040;2023-03-03T01:28:22;101356.13;;;2.24;61.41
50380;BME280;37474;59.468;18.040;2023-03-03T01:30:52;101359.53;;;2.21;61.76
50380;BME280;37474;59.468;18.040;2023-03-03T01:33:20;101361.25;;;2.16;61.45
50380;BME280;37474;59.468;18.040;2023-03-03T01:35:48;101357.94;;;2.03;61.90
50380;BME280;37474;59.468;18.040;2023-03-03T01:38:18;101359.53;;;2.21;60.98
50380;BME280;37474;59.468;18.040;2023-03-03T01:40:51;101350.31;;;2.00;62.28
50380;BME280;37474;59.468;18.040;2023-03-03T01:43:25;101344.38;;;1.94;63.09
50380;BME280;37474;59.468;18.040;2023-03-03T01:46:25;101353.81;;;1.82;63.07
50380;BME280;37474;59.468;18.040;2023-03-03T01:49:02;101341.84;;;1.91;62.79
50380;BME280;37474;59.468;18.040;2023-03-03T01:51:35;101321.44;;;1.77;62.84
50380;BME280;37474;59.468;18.040;2023-03-03T01:54:12;101309.56;;;1.70;62.99
50380;BME280;37474;59.468;18.040;2023-03-03T01:56:41;101335.13;;;1.74;63.44
50380;BME280;37474;59.468;18.040;2023-03-03T01:59:17;101340.16;;;1.87;63.35
50380;BME280;37474;59.468;18.040;2023-03-03T02:01:46;101352.13;;;1.77;63.49
50380;BME280;37474;59.468;18.040;2023-03-03T02:04:17;101335.88;;;1.90;62.93
50380;BME280;37474;59.468;18.040;2023-03-03T02:06:51;101331.56;;;1.97;62.97
50380;BME280;37474;59.468;18.040;2023-03-03T02:09:26;101320.59;;;1.79;62.26
50380;BME280;37474;59.468;18.040;2023-03-03T02:11:59;101338.38;;;2.01;62.18
50380;BME280;37474;59.468;18.040;2023-03-03T02:14:33;101348.59;;;2.02;62.72
50380;BME280;37474;59.468;18.040;2023-03-03T02:17:01;101340.03;;;2.05;61.63
50380;BME280;37474;59.468;18.040;2023-03-03T02:19:38;101348.56;;;2.07;61.33
50380;BME280;37474;59.468;18.040;2023-03-03T02:22:13;101310.34;;;1.81;60.77
50380;BME280;37474;59.468;18.040;2023-03-03T02:24:48;101332.34;;;2.11;61.33
50380;BME280;37474;59.468;18.040;2023-03-03T02:27:21;101335.84;;;1.96;61.95
50380;BME280;37474;59.468;18.040;2023-03-03T02:29:51;101303.53;;;1.84;60.50
50380;BME280;37474;59.468;18.040;2023-03-03T02:32:19;101339.25;;;1.97;61.25
50380;BME280;37474;59.468;18.040;2023-03-03T02:34:50;101344.38;;;1.95;61.57
50380;BME280;37474;59.468;18.040;2023-03-03T02:37:21;101349.47;;;1.94;61.26
50380;BME280;37474;59.468;18.040;2023-03-03T02:39:51;101318.09;;;1.66;61.72
50380;BME280;37474;59.468;18.040;2023-03-03T02:42:24;101346.16;;;1.81;61.22
50380;BME280;37474;59.468;18.040;2023-03-03T02:44:57;101350.38;;;1.90;61.08
50380;BME280;37474;59.468;18.040;2023-03-03T02:47:26;101355.56;;;1.71;61.83
50380;BME280;37474;59.468;18.040;2023-03-03T02:49:54;101324.13;;;1.62;61.95
50380;BME280;37474;59.468;18.040;2023-03-03T02:52:24;101353.91;;;1.67;62.23
50380;BME280;37474;59.468;18.040;2023-03-03T02:54:56;101352.16;;;1.75;62.11
50380;BME280;37474;59.468;18.040;2023-03-03T02:57:25;101342.81;;;1.70;63.54
50380;BME280;37474;59.468;18.040;2023-03-03T02:59:53;101345.31;;;1.77;61.57
50380;BME280;37474;59.468;18.040;2023-03-03T03:02:25;101344.53;;;1.65;61.77
50380;BME280;37474;59.468;18.040;2023-03-03T03:04:53;101339.41;;;1.68;61.93
50380;BME280;37474;59.468;18.040;2023-03-03T03:07:21;101344.53;;;1.65;61.53
50380;BME280;37474;59.468;18.040;2023-03-03T03:09:49;101342.91;;;1.48;63.15
50380;BME280;37474;59.468;18.040;2023-03-03T03:12:16;101345.44;;;1.56;62.86
50380;BME280;37474;59.468;18.040;2023-03-03T03:14:46;101342.88;;;1.56;62.63
50380;BME280;37474;59.468;18.040;2023-03-03T03:17:18;101337.78;;;1.51;62.93
50380;BME280;37474;59.468;18.040;2023-03-03T03:19:45;101336.06;;;1.55;62.10
50380;BME280;37474;59.468;18.040;2023-03-03T03:22:13;101331.84;;;1.48;62.95
50380;BME280;37474;59.468;18.040;2023-03-03T03:24:45;101337.78;;;1.51;62.54
50380;BME280;37474;59.468;18.040;2023-03-03T03:27:12;101338.63;;;1.52;62.37
50380;BME280;37474;59.468;18.040;2023-03-03T03:29:40;101328.47;;;1.37;62.85
50380;BME280;37474;59.468;18.040;2023-03-03T03:32:13;101333.53;;;1.52;62.24
50380;BME280;37474;59.468;18.040;2023-03-03T03:34:42;101329.31;;;1.42;62.59
50380;BME280;37474;59.468;18.040;2023-03-03T03:37:10;101323.38;;;1.37;62.83
50380;BME280;37474;59.468;18.040;2023-03-03T03:39:42;101329.28;;;1.46;62.74
50380;BME280;37474;59.468;18.040;2023-03-03T03:42:10;101322.56;;;1.25;63.42
50380;BME280;37474;59.468;18.040;2023-03-03T03:44:38;101325.06;;;1.41;62.67
50380;BME280;37474;59.468;18.040;2023-03-03T03:47:10;101319.16;;;1.25;63.14
50380;BME280;37474;59.468;18.040;2023-03-03T03:49:39;101320.88;;;1.15;64.50
50380;BME280;37474;59.468;18.040;2023-03-03T03:52:06;101289.44;;;1.07;63.21
50380;BME280;37474;59.468;18.040;2023-03-03T03:54:38;101317.47;;;1.16;63.54
50380;BME280;37474;59.468;18.040;2023-03-03T03:57:06;101321.75;;;1.08;63.44
50380;BME280;37474;59.468;18.040;2023-03-03T03:59:34;101323.44;;;1.18;63.58
50380;BME280;37474;59.468;18.040;2023-03-03T04:02:04;101322.69;;;0.84;64.71
50380;BME280;37474;59.468;18.040;2023-03-03T04:04:32;101323.50;;;0.95;64.48
50380;BME280;37474;59.468;18.040;2023-03-03T04:07:01;101312.44;;;0.87;65.94
50380;BME280;37474;59.468;18.040;2023-03-03T04:09:33;101265.72;;;0.68;64.88
50380;BME280;37474;59.468;18.040;2023-03-03T04:12:01;101313.25;;;1.00;64.70
50380;BME280;37474;59.468;18.040;2023-03-03T04:14:30;101285.28;;;0.63;64.87
50380;BME280;37474;59.468;18.040;2023-03-03T04:17:03;101287.81;;;0.85;64.22
50380;BME280;37474;59.468;18.040;2023-03-03T04:19:30;101309.06;;;0.76;65.24
50380;BME280;37474;59.468;18.040;2023-03-03T04:21:58;101312.50;;;0.78;65.41
50380;BME280;37474;59.468;18.040;2023-03-03T04:24:31;101314.13;;;1.02;64.63
50380;BME280;37474;59.468;18.040;2023-03-03T04:26:59;101304.78;;;0.93;64.44
50380;BME280;37474;59.468;18.040;2023-03-03T04:29:26;101305.69;;;0.69;66.52
50380;BME280;37474;59.468;18.040;2023-03-03T04:31:56;101286.97;;;0.55;66.14
50380;BME280;37474;59.468;18.040;2023-03-03T04:34:26;101304.81;;;0.86;65.32
50380;BME280;37474;59.468;18.040;2023-03-03T04:36:54;101306.53;;;0.73;65.54
50380;BME280;37474;59.468;18.040;2023-03-03T04:39:23;101291.25;;;0.51;66.38
50380;BME280;37474;59.468;18.040;2023-03-03T04:41:54;101306.53;;;0.73;65.86
50380;BME280;37474;59.468;18.040;2023-03-03T04:44:22;101292.94;;;0.72;65.31
50380;BME280;37474;59.468;18.040;2023-03-03T04:46:52;101304.84;;;0.44;66.86
50380;BME280;37474;59.468;18.040;2023-03-03T04:49:22;101298.03;;;0.65;66.77
50380;BME280;37474;59.468;18.040;2023-03-03T04:51:50;101298.06;;;0.57;66.31
50380;BME280;37474;59.468;18.040;2023-03-03T04:54:19;101288.66;;;0.76;65.55
50380;BME280;37474;59.468;18.040;2023-03-03T04:56:49;101295.47;;;0.69;66.32
50380;BME280;37474;59.468;18.040;2023-03-03T04:59:18;101291.22;;;0.71;65.51
50380;BME280;37474;59.468;18.040;2023-03-03T05:01:48;101288.69;;;0.53;66.56
50380;BME280;37474;59.468;18.040;2023-03-03T05:04:18;101280.19;;;0.57;66.03
50380;BME280;37474;59.468;18.040;2023-03-03T05:06:46;101275.91;;;0.65;66.15
50380;BME280;37474;59.468;18.040;2023-03-03T05:09:16;101275.09;;;0.48;67.69
50380;BME280;37474;59.468;18.040;2023-03-03T05:11:46;101264.91;;;0.45;67.05
50380;BME280;37474;59.468;18.040;2023-03-03T05:14:16;101277.66;;;0.57;66.62
50380;BME280;37474;59.468;18.040;2023-03-03T05:16:47;101277.63;;;0.54;67.07
50380;BME280;37474;59.468;18.040;2023-03-03T05:19:15;101251.31;;;0.46;67.00
50380;BME280;37474;59.468;18.040;2023-03-03T05:21:45;101264.91;;;0.39;68.91
50380;BME280;37474;59.468;18.040;2023-03-03T05:24:15;101264.88;;;0.62;67.05
50380;BME280;37474;59.468;18.040;2023-03-03T05:26:42;101262.31;;;0.68;66.84
50380;BME280;37474;59.468;18.040;2023-03-03T05:29:12;101260.63;;;0.48;68.29
50380;BME280;37474;59.468;18.040;2023-03-03T05:31:42;101253.84;;;0.52;67.32
50380;BME280;37474;59.468;18.040;2023-03-03T05:34:12;101207.13;;;0.22;68.45
50380;BME280;37474;59.468;18.040;2023-03-03T05:36:42;101243.63;;;0.52;68.17
50380;BME280;37474;59.468;18.040;2023-03-03T05:39:12;101252.16;;;0.56;68.33
50380;BME280;37474;59.468;18.040;2023-03-03T05:41:40;101252.13;;;0.39;68.92
50380;BME280;37474;59.468;18.040;2023-03-03T05:44:10;101250.44;;;0.58;67.86
50380;BME280;37474;59.468;18.040;2023-03-03T05:46:40;101260.66;;;0.51;68.07
50380;BME280;37474;59.468;18.040;2023-03-03T05:49:08;101260.63;;;0.61;67.75
50380;BME280;37474;59.468;18.040;2023-03-03T05:51:38;101248.69;;;0.69;66.63
50380;BME280;37474;59.468;18.040;2023-03-03T05:54:08;101262.31;;;0.65;67.16
50380;BME280;37474;59.468;18.040;2023-03-03T05:56:36;101206.28;;;0.14;67.83
50380;BME280;37474;59.468;18.040;2023-03-03T05:59:06;101256.34;;;0.66;67.35
50380;BME280;37474;59.468;18.040;2023-03-03T06:01:36;101253.00;;;0.56;67.49
50380;BME280;37474;59.468;18.040;2023-03-03T06:04:04;101265.72;;;0.50;67.75
50380;BME280;37474;59.468;18.040;2023-03-03T06:06:38;101258.06;;;0.62;67.52
50380;BME280;37474;59.468;18.040;2023-03-03T06:09:08;101257.22;;;0.68;67.33
50380;BME280;37474;59.468;18.040;2023-03-03T06:11:38;101219.00;;;0.40;68.75
50380;BME280;37474;59.468;18.040;2023-03-03T06:14:05;101248.72;;;0.60;67.13
50380;BME280;37474;59.468;18.040;2023-03-03T06:16:33;101240.25;;;0.38;68.67
50380;BME280;37474;59.468;18.040;2023-03-03T06:19:03;101252.13;;;0.48;68.54
50380;BME280;37474;59.468;18.040;2023-03-03T06:21:31;101245.31;;;0.50;68.82
50380;BME280;37474;59.468;18.040;2023-03-03T06:24:00;101247.84;;;0.68;67.06
50380;BME280;37474;59.468;18.040;2023-03-03T06:26:31;101231.69;;;0.60;68.25
50380;BME280;37474;59.468;18.040;2023-03-03T06:28:59;101215.59;;;0.46;67.74
50380;BME280;37474;59.468;18.040;2023-03-03T06:31:28;101238.53;;;0.49;68.87
50380;BME280;37474;59.468;18.040;2023-03-03T06:33:56;101243.66;;;0.31;70.14
50380;BME280;37474;59.468;18.040;2023-03-03T06:36:24;101247.03;;;0.62;68.00
50380;BME280;37474;59.468;18.040;2023-03-03T06:38:52;101202.78;;;0.55;67.59
50380;BME280;37474;59.468;18.040;2023-03-03T06:41:24;101240.09;;;0.93;66.58
50380;BME280;37474;59.468;18.040;2023-03-03T06:43:51;101222.25;;;0.93;66.87
50380;BME280;37474;59.468;18.040;2023-03-03T06:46:19;101240.03;;;1.10;66.39
50380;BME280;37474;59.468;18.040;2023-03-03T06:48:49;101236.63;;;1.09;66.67
50380;BME280;37474;59.468;18.040;2023-03-03T06:51:22;101227.25;;;1.19;66.13
50380;BME280;37474;59.468;18.040;2023-03-03T06:53:57;101206.03;;;1.00;66.25
50380;BME280;37474;59.468;18.040;2023-03-03T06:56:27;101222.91;;;1.35;65.09
50380;BME280;37474;59.468;18.040;2023-03-03T06:59:05;101205.88;;;1.30;64.82
50380;BME280;37474;59.468;18.040;2023-03-03T07:01:37;101222.88;;;1.36;64.88
50380;BME280;37474;59.468;18.040;2023-03-03T07:04:15;101237.28;;;1.52;63.85
50380;BME280;37474;59.468;18.040;2023-03-03T07:06:46;101223.59;;;1.55;64.45
50380;BME280;37474;59.468;18.040;2023-03-03T07:09:21;101233.94;;;1.38;65.12
50380;BME280;37474;59.468;18.040;2023-03-03T07:11:51;101228.84;;;1.40;65.03
50380;BME280;37474;59.468;18.040;2023-03-03T07:14:23;101220.25;;;1.51;65.06
50380;BME280;37474;59.468;18.040;2023-03-03T07:16:55;101211.59;;;1.69;63.07
50380;BME280;37474;59.468;18.040;2023-03-03T07:19:30;101214.03;;;1.86;63.40
50380;BME280;37474;59.468;18.040;2023-03-03T07:22:00;101161.31;;;1.71;62.65
50380;BME280;37474;59.468;18.040;2023-03-03T07:24:33;101214.72;;;2.03;62.89
50380;BME280;37474;59.468;18.040;2023-03-03T07:27:10;101212.16;;;2.05;61.76
50380;BME280;37474;59.468;18.040;2023-03-03T07:29:41;101172.22;;;1.95;62.06
50380;BME280;37474;59.468;18.040;2023-03-03T07:32:23;101209.38;;;2.31;60.94
50380;BME280;37474;59.468;18.040;2023-03-03T07:34:55;101203.44;;;2.26;61.52
50380;BME280;37474;59.468;18.040;2023-03-03T07:37:35;101187.19;;;2.31;60.96
50380;BME280;37474;59.468;18.040;2023-03-03T07:40:26;101185.41;;;2.40;60.58
50380;BME280;37474;59.468;18.040;2023-03-03T07:42:58;101183.50;;;2.55;61.98
50380;BME280;37474;59.468;18.040;2023-03-03T07:45:28;101171.50;;;2.62;59.62
50380;BME280;37474;59.468;18.040;2023-03-03T07:48:04;101162.03;;;2.69;60.15
50380;BME280;37474;59.468;18.040;2023-03-03T07:50:38;101163.53;;;2.86;59.11
50380;BME280;37474;59.468;18.040;2023-03-03T07:53:11;101155.66;;;3.02;59.20
50380;BME280;37474;59.468;18.040;2023-03-03T07:55:41;101158.63;;;3.31;58.41
50380;BME280;37474;59.468;18.040;2023-03-03T07:58:20;101114.34;;;3.22;58.54
50380;BME280;37474;59.468;18.040;2023-03-03T08:03:56;101154.00;;;3.56;58.10
50380;BME280;37474;59.468;18.040;2023-03-03T08:06:34;101098.63;;;3.46;56.67
50380;BME280;37474;59.468;18.040;2023-03-03T08:12:33;101125.44;;;3.78;56.31
50380;BME280;37474;59.468;18.040;2023-03-03T08:15:23;101126.44;;;3.69;56.04
50380;BME280;37474;59.468;18.040;2023-03-03T08:17:54;101090.56;;;3.66;57.85
50380;BME280;37474;59.468;18.040;2023-03-03T08:20:41;101117.59;;;3.85;57.02
50380;BME280;37474;59.468;18.040;2023-03-03T08:23:10;101101.53;;;3.76;57.15
50380;BME280;37474;59.468;18.040;2023-03-03T08:25:38;101100.47;;;3.87;56.74
50380;BME280;37474;59.468;18.040;2023-03-03T08:28:08;101101.19;;;3.95;56.32
50380;BME280;37474;59.468;18.040;2023-03-03T08:30:38;101104.06;;;3.77;57.20
50380;BME280;37474;59.468;18.040;2023-03-03T08:33:06;101088.97;;;3.60;56.89
50380;BME280;37474;59.468;18.040;2023-03-03T08:35:34;101082.94;;;3.63;56.68
50380;BME280;37474;59.468;18.040;2023-03-03T08:38:02;101085.06;;;3.39;57.81
50380;BME280;37474;59.468;18.040;2023-03-03T08:40:31;101081.47;;;3.48;57.50
50380;BME280;37474;59.468;18.040;2023-03-03T08:43:00;101071.19;;;3.51;57.54
50380;BME280;37474;59.468;18.040;2023-03-03T08:45:28;101104.47;;;3.53;57.88
50380;BME280;37474;59.468;18.040;2023-03-03T08:47:59;101099.25;;;3.59;57.52
50380;BME280;37474;59.468;18.040;2023-03-03T08:50:30;101090.59;;;3.64;58.27
50380;BME280;37474;59.468;18.040;2023-03-03T08:53:02;101087.06;;;3.71;57.74
50380;BME280;37474;59.468;18.040;2023-03-03T08:55:32;101055.75;;;3.54;56.84
50380;BME280;37474;59.468;18.040;2023-03-03T08:58:00;101075.53;;;3.94;56.97
50380;BME280;37474;59.468;18.040;2023-03-03T09:00:32;101069.03;;;3.78;56.28
50380;BME280;37474;59.468;18.040;2023-03-03T09:03:02;101075.75;;;3.82;56.98
50380;BME280;37474;59.468;18.040;2023-03-03T09:05:34;101072.31;;;3.83;56.08
50380;BME280;37474;59.468;18.040;2023-03-03T09:08:03;101061.06;;;3.91;55.90
50380;BME280;37474;59.468;18.040;2023-03-03T09:10:31;101050.47;;;4.08;56.08
50380;BME280;37474;59.468;18.040;2023-03-03T09:13:10;101049.69;;;4.06;55.46
50380;BME280;37474;59.468;18.040;2023-03-03T09:15:39;101048.88;;;4.03;55.42
50380;BME280;37474;59.468;18.040;2023-03-03T09:18:19;101035.13;;;4.07;55.61
50380;BME280;37474;59.468;18.040;2023-03-03T09:20:49;101026.28;;;4.20;55.68
50380;BME280;37474;59.468;18.040;2023-03-03T09:23:40;101017.50;;;4.32;55.19
50380;BME280;37474;59.468;18.040;2023-03-03T09:26:26;101001.13;;;4.37;54.77
50380;BME280;37474;59.468;18.040;2023-03-03T09:29:08;101008.06;;;4.34;54.64
50380;BME280;37474;59.468;18.040;2023-03-03T09:31:44;100997.97;;;4.24;54.52
50380;BME280;37474;59.468;18.040;2023-03-03T09:34:20;100991.91;;;4.29;55.06
50380;BME280;37474;59.468;18.040;2023-03-03T09:36:52;100980.66;;;4.33;55.21
50380;BME280;37474;59.468;18.040;2023-03-03T09:39:22;100971.63;;;4.55;54.21
50380;BME280;37474;59.468;18.040;2023-03-03T09:42:11;100961.25;;;4.60;54.26
50380;BME280;37474;59.468;18.040;2023-03-03T09:45:02;100954.38;;;4.62;53.61
50380;BME280;37474;59.468;18.040;2023-03-03T09:47:43;100922.03;;;4.53;54.21
50380;BME280;37474;59.468;18.040;2023-03-03T09:50:27;100945.47;;;4.75;54.76
50380;BME280;37474;59.468;18.040;2023-03-03T09:53:06;100934.41;;;4.73;54.29
50380;BME280;37474;59.468;18.040;2023-03-03T09:55:45;100939.69;;;4.67;53.18
50380;BME280;37474;59.468;18.040;2023-03-03T09:58:43;100937.25;;;4.61;53.80
50380;BME280;37474;59.468;18.040;2023-03-03T10:01:33;100922.03;;;4.53;54.55
50380;BME280;37474;59.468;18.040;2023-03-03T10:04:23;100921.16;;;4.54;54.52
50380;BME280;37474;59.468;18.040;2023-03-03T10:07:11;100931.59;;;4.46;54.73
50380;BME280;37474;59.468;18.040;2023-03-03T10:10:02;100871.28;;;4.27;55.46
50380;BME280;37474;59.468;18.040;2023-03-03T10:12:36;100923.41;;;4.68;55.26
50380;BME280;37474;59.468;18.040;2023-03-03T10:15:17;100903.19;;;4.17;56.48
50380;BME280;37474;59.468;18.040;2023-03-03T10:17:49;100933.84;;;4.23;58.14
50380;BME280;37474;59.468;18.040;2023-03-03T10:20:34;100918.78;;;4.08;59.91
50380;BME280;37474;59.468;18.040;2023-03-03T10:23:25;100917.81;;;4.13;60.52
50380;BME280;37474;59.468;18.040;2023-03-03T10:26:04;100919.91;;;3.96;62.75
50380;BME280;37474;59.468;18.040;2023-03-03T10:29:01;100917.56;;;3.85;64.54
50380;BME280;37474;59.468;18.040;2023-03-03T10:31:59;100926.59;;;3.60;69.30
50380;BME280;37474;59.468;18.040;2023-03-03T10:34:46;100945.31;;;3.18;76.49
50380;BME280;37474;59.468;18.040;2023-03-03T10:37:23;100919.16;;;3.00;81.33
50380;BME280;37474;59.468;18.040;2023-03-03T10:40:05;100932.53;;;2.66;87.69
50380;BME280;37474;59.468;18.040;2023-03-03T10:43:08;100924.34;;;2.43;93.02
50380;BME280;37474;59.468;18.040;2023-03-03T10:46:13;100920.41;;;2.20;99.19
50380;BME280;37474;59.468;18.040;2023-03-03T10:49:04;100904.47;;;2.03;100.00
50380;BME280;37474;59.468;18.040;2023-03-03T10:51:53;100907.69;;;2.16;100.00
50380;BME280;37474;59.468;18.040;2023-03-03T10:54:36;100906.94;;;2.09;100.00
50380;BME280;37474;59.468;18.040;2023-03-03T10:57:14;100863.84;;;1.81;100.00
50380;BME280;37474;59.468;18.040;2023-03-03T10:59:54;100866.31;;;1.88;100.00
50380;BME280;37474;59.468;18.040;2023-03-03T11:02:33;100814.69;;;1.63;100.00
50380;BME280;37474;59.468;18.040;2023-03-03T11:05:14;100851.03;;;1.84;100.00
50380;BME280;37474;59.468;18.040;2023-03-03T11:07:50;100800.28;;;1.55;100.00
50380;BME280;37474;59.468;18.040;2023-03-03T11:10:37;100823.00;;;1.78;100.00
50380;BME280;37474;59.468;18.040;2023-03-03T11:13:20;100812.91;;;1.66;100.00
50380;BME280;37474;59.468;18.040;2023-03-03T11:15:59;100806.09;;;1.68;100.00
50380;BME280;37474;59.468;18.040;2023-03-03T11:18:40;100773.22;;;1.42;100.00
50380;BME280;37474;59.468;18.040;2023-03-03T11:21:15;100806.19;;;1.61;100.00
50380;BME280;37474;59.468;18.040;2023-03-03T11:23:53;100800.28;;;1.55;100.00
50380;BME280;37474;59.468;18.040;2023-03-03T11:26:33;100786.22;;;1.25;100.00
50380;BME280;37474;59.468;18.040;2023-03-03T11:29:34;100767.34;;;1.36;100.00
50380;BME280;37474;59.468;18.040;2023-03-03T11:32:15;100774.25;;;1.27;100.00
50380;BME280;37474;59.468;18.040;2023-03-03T11:34:55;100769.16;;;1.29;100.00
50380;BME280;37474;59.468;18.040;2023-03-03T11:37:34;100760.56;;;1.33;100.00
50380;BME280;37474;59.468;18.040;2023-03-03T11:40:11;100742.63;;;1.38;100.00
50380;BME280;37474;59.468;18.040;2023-03-03T11:42:49;100740.53;;;1.67;100.00
50380;BME280;37474;59.468;18.040;2023-03-03T11:45:24;100754.78;;;1.80;100.00
50380;BME280;37474;59.468;18.040;2023-03-03T11:47:58;100738.16;;;1.53;100.00
50380;BME280;37474;59.468;18.040;2023-03-03T11:50:30;100719.16;;;1.70;100.00
50380;BME280;37474;59.468;18.040;2023-03-03T11:53:12;100709.59;;;1.82;100.00
50380;BME280;37474;59.468;18.040;2023-03-03T11:55:48;100700.31;;;1.78;100.00
50380;BME280;37474;59.468;18.040;2023-03-03T11:58:21;100662.00;;;1.75;100.00
50380;BME280;37474;59.468;18.040;2023-03-03T12:00:56;100666.53;;;2.09;100.00
50380;BME280;37474;59.468;18.040;2023-03-03T12:03:33;100641.88;;;2.06;100.00
50380;BME280;37474;59.468;18.040;2023-03-03T12:06:13;100634.94;;;2.13;100.00
50380;BME280;37474;59.468;18.040;2023-03-03T12:09:02;100616.06;;;2.19;100.00
50380;BME280;37474;59.468;18.040;2023-03-03T12:11:46;100603.38;;;2.14;100.00
50380;BME280;37474;59.468;18.040;2023-03-03T12:14:24;100585.00;;;1.94;100.00
50380;BME280;37474;59.468;18.040;2023-03-03T12:16:59;100580.63;;;2.00;100.00
50380;BME280;37474;59.468;18.040;2023-03-03T12:19:33;100574.81;;;1.92;100.00
50380;BME280;37474;59.468;18.040;2023-03-03T12:22:12;100556.34;;;1.76;100.00
50380;BME280;37474;59.468;18.040;2023-03-03T12:27:39;100566.31;;;1.90;100.00
50380;BME280;37474;59.468;18.040;2023-03-03T12:30:16;100569.34;;;2.10;100.00
50380;BME280;37474;59.468;18.040;2023-03-03T12:33:06;100541.47;;;2.38;100.00
50380;BME280;37474;59.468;18.040;2023-03-03T12:35:42;100550.03;;;2.39;100.00
50380;BME280;37474;59.468;18.040;2023-03-03T12:38:27;100538.88;;;2.42;100.00
50380;BME280;37474;59.468;18.040;2023-03-03T12:41:01;100500.81;;;2.28;100.00
50380;BME280;37474;59.468;18.040;2023-03-03T12:46:58;100517.25;;;2.56;98.83
50380;BME280;37474;59.468;18.040;2023-03-03T12:49:36;100529.75;;;2.69;96.70
50380;BME280;37474;59.468;18.040;2023-03-03T12:52:20;100513.56;;;2.68;94.61
50380;BME280;37474;59.468;18.040;2023-03-03T12:54:58;100490.94;;;2.87;92.37
50380;BME280;37474;59.468;18.040;2023-03-03T12:57:35;100510.28;;;2.99;89.68
50380;BME280;37474;59.468;18.040;2023-03-03T13:00:21;100489.50;;;2.75;89.56
50380;BME280;37474;59.468;18.040;2023-03-03T13:03:01;100474.69;;;2.88;87.21
50380;BME280;37474;59.468;18.040;2023-03-03T13:05:45;100474.97;;;2.76;87.57
50380;BME280;37474;59.468;18.040;2023-03-03T13:08:24;100455.28;;;2.79;85.65
50380;BME280;37474;59.468;18.040;2023-03-03T13:11:11;100437.72;;;2.64;81.31
50380;BME280;37474;59.468;18.040;2023-03-03T13:13:48;100445.03;;;2.79;82.19
50380;BME280;37474;59.468;18.040;2023-03-03T13:16:23;100439.56;;;2.95;80.32
50380;BME280;37474;59.468;18.040;2023-03-03T13:19:08;100428.22;;;3.03;79.01
50380;BME280;37474;59.468;18.040;2023-03-03T13:21:44;100423.22;;;3.31;71.58
50380;BME280;37474;59.468;18.040;2023-03-03T13:24:17;100410.72;;;3.52;70.04
50380;BME280;37474;59.468;18.040;2023-03-03T13:26:53;100400.00;;;3.37;70.30
50380;BME280;37474;59.468;18.040;2023-03-03T13:29:26;100408.13;;;3.21;67.38
50380;BME280;37474;59.468;18.040;2023-03-03T13:31:59;100392.78;;;3.21;66.39
50380;BME280;37474;59.468;18.040;2023-03-03T13:34:38;100381.84;;;3.14;66.18
50380;BME280;37474;59.468;18.040;2023-03-03T13:37:15;100371.03;;;3.03;66.75